Time;durP1;ratioP1;P1;durP2;ratioP2;P2;SDS_P1;SDS_P2;PMS_P1;PMS_P2;Temp;Humidity;BMP_temperature;BMP_pressure;BME280_temperature;BME280_humidity;BME280_pressure;Samples;Min_cycle;Max_cycle;Signal;HPM_P1;HPM_P2
2022/03/06 00:00:40;;;;;;;27.88;14.40;;;;;;;;;;4983261;28;20051;-71
2022/03/06 00:03:07;;;;;;;29.02;14.85;;;;;;;;;;4974910;28;20043;-71
2022/03/06 00:05:33;;;;;;;26.92;13.45;;;;;;;;;;4990735;28;20054;-71
2022/03/06 00:07:59;;;;;;;28.40;14.60;;;;;;;;;;4985767;28;20046;-70
2022/03/06 00:10:26;;;;;;;28.13;14.75;;;;;;;;;;4963476;28;20062;-71
2022/03/06 00:12:52;;;;;;;30.42;14.82;;;;;;;;;;4986151;28;20050;-71
2022/03/06 00:15:21;;;;;;;29.23;14.85;;;;;;;;;;4982557;28;20053;-72
2022/03/06 00:17:56;;;;;;;27.52;14.68;;;;;;;;;;4986007;28;20043;-71
2022/03/06 00:20:23;;;;;;;32.08;14.52;;;;;;;;;;4970784;28;20051;-71
2022/03/06 00:22:49;;;;;;;31.35;14.80;;;;;;;;;;4986346;28;20154;-71
2022/03/06 00:25:16;;;;;;;30.10;14.57;;;;;;;;;;4998997;28;20045;-71
2022/03/06 00:27:42;;;;;;;27.98;14.90;;;;;;;;;;4988960;28;20058;-71
2022/03/06 00:30:09;;;;;;;26.77;14.10;;;;;;;;;;4989165;28;20046;-71
2022/03/06 00:32:35;;;;;;;26.58;13.52;;;;;;;;;;4977087;28;20054;-71
2022/03/06 00:35:01;;;;;;;26.40;13.80;;;;;;;;;;4986106;28;20157;-71
2022/03/06 00:37:27;;;;;;;28.55;14.63;;;;;;;;;;4987464;28;20701;-71
2022/03/06 00:39:54;;;;;;;26.73;14.80;;;;;;;;;;4988916;28;20046;-71
2022/03/06 00:42:20;;;;;;;26.77;13.52;;;;;;;;;;4990147;28;20522;-71
2022/03/06 00:44:46;;;;;;;27.48;13.93;;;;;;;;;;4986594;28;20060;-71
2022/03/06 00:47:13;;;;;;;26.23;13.13;;;;;;;;;;4999995;28;20046;-71
2022/03/06 00:49:39;;;;;;;29.50;13.48;;;;;;;;;;4975521;28;20595;-71
2022/03/06 00:52:05;;;;;;;27.77;13.85;;;;;;;;;;4988185;28;20069;-71
2022/03/06 00:54:32;;;;;;;27.35;13.05;;;;;;;;;;4971414;28;20073;-71
2022/03/06 00:56:58;;;;;;;24.23;12.20;;;;;;;;;;4984467;28;20053;-70
2022/03/06 00:59:24;;;;;;;25.33;13.85;;;;;;;;;;4977920;28;20050;-71
2022/03/06 01:01:50;;;;;;;26.23;13.23;;;;;;;;;;4975881;28;20534;-71
2022/03/06 01:04:17;;;;;;;25.60;13.38;;;;;;;;;;5001731;28;20046;-71
2022/03/06 01:06:43;;;;;;;28.65;13.77;;;;;;;;;;4981408;28;20046;-71
2022/03/06 01:09:10;;;;;;;29.58;13.73;;;;;;;;;;4983442;28;20064;-71
2022/03/06 01:11:36;;;;;;;24.83;13.93;;;;;;;;;;4976307;28;20043;-71
2022/03/06 01:14:03;;;;;;;29.08;14.25;;;;;;;;;;4978843;28;20069;-71
2022/03/06 01:16:29;;;;;;;26.63;12.85;;;;;;;;;;4990739;28;20495;-71
2022/03/06 01:18:57;;;;;;;26.02;12.57;;;;;;;;;;4976855;28;20427;-71
2022/03/06 01:21:23;;;;;;;28.90;14.35;;;;;;;;;;4987762;28;20496;-71
2022/03/06 01:23:49;;;;;;;27.15;13.82;;;;;;;;;;4980402;28;20042;-71
2022/03/06 01:26:16;;;;;;;27.00;12.02;;;;;;;;;;4989957;28;20476;-71
2022/03/06 01:28:43;;;;;;;20.92;11.60;;;;;;;;;;4980591;28;20495;-71
2022/03/06 01:31:09;;;;;;;26.95;13.57;;;;;;;;;;4980269;28;20427;-71
2022/03/06 01:33:35;;;;;;;25.90;13.00;;;;;;;;;;4993600;28;20046;-71
2022/03/06 01:36:02;;;;;;;28.25;14.60;;;;;;;;;;4981410;28;20057;-71
2022/03/06 01:38:28;;;;;;;22.80;12.23;;;;;;;;;;4987953;28;20141;-70
2022/03/06 01:40:55;;;;;;;24.25;12.90;;;;;;;;;;4974932;28;20401;-71
2022/03/06 01:43:21;;;;;;;23.70;13.18;;;;;;;;;;4984977;28;20050;-70
2022/03/06 01:45:47;;;;;;;22.88;12.45;;;;;;;;;;4974214;28;20050;-71
2022/03/06 01:48:14;;;;;;;26.73;13.70;;;;;;;;;;4991764;28;20050;-70
2022/03/06 01:50:42;;;;;;;31.73;13.07;;;;;;;;;;4987818;28;20411;-71
2022/03/06 01:53:09;;;;;;;23.10;12.70;;;;;;;;;;4994415;28;20096;-71
2022/03/06 01:55:36;;;;;;;25.58;13.70;;;;;;;;;;4987661;28;20053;-70
2022/03/06 01:58:03;;;;;;;26.38;13.48;;;;;;;;;;4973676;28;20517;-70
2022/03/06 02:00:33;;;;;;;24.85;13.35;;;;;;;;;;4985981;28;20305;-70
2022/03/06 02:02:59;;;;;;;28.77;14.10;;;;;;;;;;4980314;28;20079;-70
2022/03/06 02:05:26;;;;;;;25.95;13.25;;;;;;;;;;4974061;28;20081;-71
2022/03/06 02:07:52;;;;;;;24.40;13.40;;;;;;;;;;4983155;28;20054;-71
2022/03/06 02:10:19;;;;;;;23.35;12.52;;;;;;;;;;4994405;28;20054;-71
2022/03/06 02:12:46;;;;;;;24.13;13.55;;;;;;;;;;4978605;28;20420;-71
2022/03/06 02:15:14;;;;;;;22.58;12.35;;;;;;;;;;4981359;28;20049;-70
2022/03/06 02:17:41;;;;;;;21.38;11.73;;;;;;;;;;4991859;28;20046;-70
2022/03/06 02:20:09;;;;;;;24.27;12.63;;;;;;;;;;4992300;28;20149;-71
2022/03/06 02:22:36;;;;;;;17.87;10.77;;;;;;;;;;4987927;28;20054;-71
2022/03/06 02:25:10;;;;;;;22.55;12.63;;;;;;;;;;4982007;28;20073;-71
2022/03/06 02:27:37;;;;;;;21.40;12.18;;;;;;;;;;4976535;28;20053;-70
2022/03/06 02:30:05;;;;;;;21.35;11.88;;;;;;;;;;4987378;28;20046;-70
2022/03/06 02:32:31;;;;;;;22.13;12.95;;;;;;;;;;4980850;28;20053;-71
2022/03/06 02:34:57;;;;;;;21.27;11.30;;;;;;;;;;4984824;28;20061;-70
2022/03/06 02:37:24;;;;;;;21.05;12.82;;;;;;;;;;4974868;28;20084;-71
2022/03/06 02:39:50;;;;;;;23.42;12.98;;;;;;;;;;4981650;28;20050;-71
2022/03/06 02:42:23;;;;;;;21.20;11.70;;;;;;;;;;4981690;28;20050;-70
2022/03/06 02:44:50;;;;;;;26.33;14.10;;;;;;;;;;4971455;28;20699;-70
2022/03/06 02:47:16;;;;;;;24.20;13.38;;;;;;;;;;4979451;28;20053;-70
2022/03/06 02:49:43;;;;;;;23.67;12.90;;;;;;;;;;4987575;28;20073;-70
2022/03/06 02:52:09;;;;;;;18.67;11.38;;;;;;;;;;4983294;28;20052;-70
2022/03/06 02:54:36;;;;;;;26.50;13.43;;;;;;;;;;4991225;28;20069;-70
2022/03/06 02:57:06;;;;;;;23.90;12.82;;;;;;;;;;4984565;28;20055;-70
2022/03/06 02:59:33;;;;;;;20.45;12.63;;;;;;;;;;4980512;28;20129;-70
2022/03/06 03:02:00;;;;;;;21.05;12.02;;;;;;;;;;4985207;28;20499;-70
2022/03/06 03:04:26;;;;;;;22.73;11.48;;;;;;;;;;4985698;28;20061;-70
2022/03/06 03:06:52;;;;;;;21.02;11.32;;;;;;;;;;4967728;28;20043;-70
2022/03/06 03:09:19;;;;;;;20.58;11.93;;;;;;;;;;4980224;28;20050;-70
2022/03/06 03:11:50;;;;;;;23.88;12.25;;;;;;;;;;4991382;28;20426;-71
2022/03/06 03:14:17;;;;;;;21.42;12.70;;;;;;;;;;4991268;28;20061;-70
2022/03/06 03:16:43;;;;;;;19.63;11.70;;;;;;;;;;4975924;28;20050;-71
2022/03/06 03:19:10;;;;;;;22.42;12.52;;;;;;;;;;4985207;28;20062;-71
2022/03/06 03:21:36;;;;;;;26.50;13.60;;;;;;;;;;4965705;28;20430;-70
2022/03/06 03:24:03;;;;;;;21.77;13.20;;;;;;;;;;4976086;28;20137;-70
2022/03/06 03:26:29;;;;;;;22.17;13.00;;;;;;;;;;4986428;28;20046;-71
2022/03/06 03:28:56;;;;;;;25.05;13.35;;;;;;;;;;4988681;28;20046;-71
2022/03/06 03:31:22;;;;;;;22.70;12.77;;;;;;;;;;4991138;28;20049;-70
2022/03/06 03:33:48;;;;;;;29.70;13.98;;;;;;;;;;4985591;28;20058;-71
2022/03/06 03:36:15;;;;;;;21.17;12.43;;;;;;;;;;4979196;28;20617;-71
2022/03/06 03:38:41;;;;;;;22.00;12.70;;;;;;;;;;4976038;28;20051;-70
2022/03/06 03:41:08;;;;;;;21.10;12.68;;;;;;;;;;4980591;28;20073;-70
2022/03/06 03:43:35;;;;;;;22.30;13.10;;;;;;;;;;4989473;28;20046;-70
2022/03/06 03:46:01;;;;;;;23.17;12.60;;;;;;;;;;4982206;28;20061;-70
2022/03/06 03:48:28;;;;;;;20.80;12.35;;;;;;;;;;4985778;28;20042;-70
2022/03/06 03:50:55;;;;;;;23.65;12.32;;;;;;;;;;4983446;28;20042;-71
2022/03/06 03:53:22;;;;;;;24.67;13.57;;;;;;;;;;4980761;28;20054;-70
2022/03/06 03:55:49;;;;;;;22.60;12.88;;;;;;;;;;4988956;28;20042;-70
2022/03/06 03:58:15;;;;;;;23.60;13.63;;;;;;;;;;4981801;28;20053;-71
2022/03/06 04:00:45;;;;;;;22.23;12.50;;;;;;;;;;4989954;28;20480;-71
2022/03/06 04:03:13;;;;;;;21.45;12.18;;;;;;;;;;4972257;28;20042;-70
2022/03/06 04:05:39;;;;;;;22.83;12.30;;;;;;;;;;5005565;28;20088;-70
2022/03/06 04:08:06;;;;;;;20.95;12.20;;;;;;;;;;4990532;28;20053;-70
2022/03/06 04:10:32;;;;;;;19.63;11.15;;;;;;;;;;4982885;28;20125;-70
2022/03/06 04:12:58;;;;;;;20.23;11.40;;;;;;;;;;4988743;28;20408;-70
2022/03/06 04:15:25;;;;;;;20.17;11.75;;;;;;;;;;4977498;28;20042;-70
2022/03/06 04:17:51;;;;;;;21.27;12.18;;;;;;;;;;4979767;28;20038;-70
2022/03/06 04:20:17;;;;;;;22.83;12.48;;;;;;;;;;4977584;28;20066;-71
2022/03/06 04:22:44;;;;;;;25.52;13.30;;;;;;;;;;4988630;28;20529;-71
2022/03/06 04:25:10;;;;;;;21.88;12.32;;;;;;;;;;4988720;28;20050;-71
2022/03/06 04:27:36;;;;;;;23.02;11.80;;;;;;;;;;4982642;28;20053;-71
2022/03/06 04:30:03;;;;;;;24.02;13.48;;;;;;;;;;4980880;28;20047;-70
2022/03/06 04:32:29;;;;;;;23.52;13.50;;;;;;;;;;4980323;28;20070;-71
2022/03/06 04:34:56;;;;;;;26.30;14.05;;;;;;;;;;4988364;28;20054;-70
2022/03/06 04:37:22;;;;;;;23.77;12.80;;;;;;;;;;4982409;28;20065;-71
2022/03/06 04:39:48;;;;;;;22.33;12.15;;;;;;;;;;4993951;28;20251;-71
2022/03/06 04:42:15;;;;;;;18.33;11.15;;;;;;;;;;4994132;28;20060;-70
2022/03/06 04:44:41;;;;;;;22.02;12.85;;;;;;;;;;4976687;28;20057;-70
2022/03/06 04:47:07;;;;;;;23.17;11.65;;;;;;;;;;4987870;28;20047;-70
2022/03/06 04:49:34;;;;;;;22.27;11.30;;;;;;;;;;4997448;28;20054;-70
2022/03/06 04:52:00;;;;;;;20.25;12.52;;;;;;;;;;4990572;28;20056;-71
2022/03/06 04:54:26;;;;;;;22.27;11.80;;;;;;;;;;4983866;28;20069;-70
2022/03/06 04:56:53;;;;;;;22.00;12.50;;;;;;;;;;4981819;28;20042;-70
2022/03/06 04:59:19;;;;;;;23.80;12.23;;;;;;;;;;4983530;28;20423;-70
2022/03/06 05:01:45;;;;;;;21.83;13.07;;;;;;;;;;4979377;28;20042;-71
2022/03/06 05:04:12;;;;;;;20.65;11.57;;;;;;;;;;4987652;28;20054;-70
2022/03/06 05:06:38;;;;;;;20.05;11.18;;;;;;;;;;4973889;28;20306;-70
2022/03/06 05:09:04;;;;;;;22.67;12.05;;;;;;;;;;4980856;28;20403;-70
2022/03/06 05:11:31;;;;;;;18.70;11.20;;;;;;;;;;4972730;28;20053;-70
2022/03/06 05:13:57;;;;;;;22.55;12.02;;;;;;;;;;4979223;28;20050;-71
2022/03/06 05:16:24;;;;;;;24.42;11.77;;;;;;;;;;4973990;28;20047;-71
2022/03/06 05:18:50;;;;;;;19.58;11.45;;;;;;;;;;4981162;28;20057;-71
2022/03/06 05:21:17;;;;;;;23.55;11.70;;;;;;;;;;4977512;28;20050;-70
2022/03/06 05:23:43;;;;;;;20.08;11.95;;;;;;;;;;4975219;28;20535;-70
2022/03/06 05:26:09;;;;;;;19.23;11.07;;;;;;;;;;4977482;28;20046;-70
2022/03/06 05:28:36;;;;;;;21.33;11.48;;;;;;;;;;4981618;28;20050;-70
2022/03/06 05:31:05;;;;;;;22.98;12.10;;;;;;;;;;4990264;28;20597;-70
2022/03/06 05:33:31;;;;;;;18.88;12.10;;;;;;;;;;4986442;28;20058;-70
2022/03/06 05:35:58;;;;;;;20.27;11.60;;;;;;;;;;4980272;28;20415;-70
2022/03/06 05:38:24;;;;;;;15.70;10.20;;;;;;;;;;4984190;28;20054;-70
2022/03/06 05:40:50;;;;;;;19.58;11.15;;;;;;;;;;4975401;28;20050;-71
2022/03/06 05:43:17;;;;;;;17.63;10.60;;;;;;;;;;4989129;28;20058;-70
2022/03/06 05:45:44;;;;;;;19.35;11.32;;;;;;;;;;4981398;28;20045;-72
2022/03/06 05:48:11;;;;;;;19.47;11.57;;;;;;;;;;4989258;28;20105;-70
2022/03/06 05:50:37;;;;;;;18.55;10.52;;;;;;;;;;4992702;28;20283;-70
2022/03/06 05:53:04;;;;;;;19.20;10.93;;;;;;;;;;4984675;28;20042;-71
2022/03/06 05:55:30;;;;;;;16.77;10.77;;;;;;;;;;4985885;28;20057;-70
2022/03/06 05:57:56;;;;;;;18.73;11.48;;;;;;;;;;4980452;28;20069;-71
2022/03/06 06:00:23;;;;;;;18.42;10.98;;;;;;;;;;4989754;28;20057;-70
2022/03/06 06:02:49;;;;;;;22.08;11.80;;;;;;;;;;4980919;28;20113;-70
2022/03/06 06:05:15;;;;;;;19.08;11.15;;;;;;;;;;4983604;28;20042;-71
2022/03/06 06:07:42;;;;;;;17.92;10.80;;;;;;;;;;4982171;28;20042;-70
2022/03/06 06:10:09;;;;;;;19.70;11.57;;;;;;;;;;4980741;28;20061;-70
2022/03/06 06:12:35;;;;;;;17.80;11.20;;;;;;;;;;4987959;28;20049;-71
2022/03/06 06:15:01;;;;;;;19.17;11.40;;;;;;;;;;4976010;28;20058;-70
2022/03/06 06:17:27;;;;;;;18.70;11.73;;;;;;;;;;4995509;28;20057;-70
2022/03/06 06:19:54;;;;;;;17.13;10.52;;;;;;;;;;4984526;28;20130;-70
2022/03/06 06:22:20;;;;;;;16.17;10.75;;;;;;;;;;4973041;28;20051;-70
2022/03/06 06:24:46;;;;;;;19.85;11.52;;;;;;;;;;4986208;28;20046;-70
2022/03/06 06:27:13;;;;;;;17.92;10.57;;;;;;;;;;4980730;28;20037;-70
2022/03/06 06:29:39;;;;;;;20.95;11.93;;;;;;;;;;4987341;28;20039;-70
2022/03/06 06:32:05;;;;;;;19.95;11.43;;;;;;;;;;4974768;28;20061;-70
2022/03/06 06:34:32;;;;;;;19.65;11.77;;;;;;;;;;4982060;28;20046;-71
2022/03/06 06:36:58;;;;;;;18.45;11.75;;;;;;;;;;4991000;28;20047;-71
2022/03/06 06:39:26;;;;;;;19.40;11.20;;;;;;;;;;4980396;28;20500;-70
2022/03/06 06:41:52;;;;;;;18.50;11.55;;;;;;;;;;4975672;28;20065;-70
2022/03/06 06:44:19;;;;;;;16.95;11.50;;;;;;;;;;4981803;28;20510;-71
2022/03/06 06:46:46;;;;;;;18.25;11.43;;;;;;;;;;4982798;28;20043;-70
2022/03/06 06:49:12;;;;;;;19.70;12.23;;;;;;;;;;4977058;28;20070;-71
2022/03/06 06:51:38;;;;;;;20.77;12.63;;;;;;;;;;4986108;28;20554;-70
2022/03/06 06:54:05;;;;;;;19.23;12.10;;;;;;;;;;4981913;28;20049;-70
2022/03/06 06:56:31;;;;;;;21.50;12.85;;;;;;;;;;4985831;28;20046;-70
2022/03/06 06:58:58;;;;;;;18.98;11.43;;;;;;;;;;4971734;28;20448;-70
2022/03/06 07:01:24;;;;;;;21.02;13.07;;;;;;;;;;4975912;28;20046;-70
2022/03/06 07:03:51;;;;;;;19.88;11.98;;;;;;;;;;4984888;28;20050;-71
2022/03/06 07:06:17;;;;;;;17.60;11.80;;;;;;;;;;4985064;28;20085;-71
2022/03/06 07:08:43;;;;;;;17.50;11.52;;;;;;;;;;4985761;28;20046;-71
2022/03/06 07:11:10;;;;;;;22.10;11.98;;;;;;;;;;4979895;28;20057;-71
2022/03/06 07:13:36;;;;;;;21.20;12.68;;;;;;;;;;4990576;28;20050;-70
2022/03/06 07:16:02;;;;;;;19.92;12.02;;;;;;;;;;4984871;28;20050;-71
2022/03/06 07:18:29;;;;;;;19.20;11.85;;;;;;;;;;4980020;28;20081;-71
2022/03/06 07:20:55;;;;;;;18.75;11.55;;;;;;;;;;4981502;28;20050;-70
2022/03/06 07:23:21;;;;;;;20.77;11.88;;;;;;;;;;4982398;28;20054;-71
2022/03/06 07:25:48;;;;;;;19.15;11.65;;;;;;;;;;4990441;28;20081;-71
2022/03/06 07:28:14;;;;;;;20.33;12.57;;;;;;;;;;4983604;28;20047;-70
2022/03/06 07:30:40;;;;;;;21.25;11.25;;;;;;;;;;4969763;28;20051;-70
2022/03/06 07:33:07;;;;;;;20.60;11.35;;;;;;;;;;4990484;28;20057;-70
2022/03/06 07:35:33;;;;;;;19.35;12.20;;;;;;;;;;4981803;28;20537;-71
2022/03/06 07:37:59;;;;;;;20.95;12.10;;;;;;;;;;5003850;28;20053;-70
2022/03/06 07:40:26;;;;;;;23.45;12.75;;;;;;;;;;4985983;28;20053;-70
2022/03/06 07:42:55;;;;;;;19.20;11.25;;;;;;;;;;4985142;28;20046;-70
2022/03/06 07:45:22;;;;;;;17.98;11.40;;;;;;;;;;4978454;28;20134;-71
2022/03/06 07:47:48;;;;;;;17.65;11.02;;;;;;;;;;4990013;28;20038;-71
2022/03/06 07:50:15;;;;;;;16.45;10.65;;;;;;;;;;4984659;28;20051;-70
2022/03/06 07:52:41;;;;;;;16.95;10.43;;;;;;;;;;4975170;28;20057;-71
2022/03/06 07:55:08;;;;;;;20.30;11.38;;;;;;;;;;4999979;28;20045;-71
2022/03/06 07:57:34;;;;;;;18.15;11.25;;;;;;;;;;4984865;28;20047;-72
2022/03/06 08:00:01;;;;;;;18.73;11.30;;;;;;;;;;4995050;28;20050;-71
2022/03/06 08:02:28;;;;;;;18.52;11.15;;;;;;;;;;4982037;28;20047;-71
2022/03/06 08:04:54;;;;;;;18.25;11.77;;;;;;;;;;4989728;28;20065;-70
2022/03/06 08:07:20;;;;;;;21.25;10.35;;;;;;;;;;4987202;28;20053;-70
2022/03/06 08:09:47;;;;;;;15.20;9.77;;;;;;;;;;4984309;28;20084;-71
2022/03/06 08:12:13;;;;;;;15.23;9.82;;;;;;;;;;4985137;28;20426;-70
2022/03/06 08:14:39;;;;;;;16.42;10.40;;;;;;;;;;4981389;28;20046;-70
2022/03/06 08:17:06;;;;;;;20.05;11.55;;;;;;;;;;4988990;28;20073;-70
2022/03/06 08:19:32;;;;;;;15.73;10.02;;;;;;;;;;4980634;28;20088;-70
2022/03/06 08:21:58;;;;;;;20.15;11.25;;;;;;;;;;5000477;28;20053;-70
2022/03/06 08:24:25;;;;;;;17.38;10.50;;;;;;;;;;4984373;28;20065;-70
2022/03/06 08:26:51;;;;;;;18.33;10.63;;;;;;;;;;4980866;28;20054;-70
2022/03/06 08:29:17;;;;;;;15.40;9.43;;;;;;;;;;4988470;28;20058;-70
2022/03/06 08:31:44;;;;;;;14.18;8.38;;;;;;;;;;4981250;28;20050;-70
2022/03/06 08:34:10;;;;;;;15.93;9.05;;;;;;;;;;4989622;28;20065;-71
2022/03/06 08:36:37;;;;;;;17.27;9.63;;;;;;;;;;4991652;28;20500;-70
2022/03/06 08:39:04;;;;;;;14.75;9.55;;;;;;;;;;4976831;28;20058;-71
2022/03/06 08:41:30;;;;;;;15.35;9.23;;;;;;;;;;4981105;28;20052;-70
2022/03/06 08:43:56;;;;;;;14.15;9.07;;;;;;;;;;4990657;28;20060;-71
2022/03/06 08:46:23;;;;;;;15.60;9.20;;;;;;;;;;4996083;28;20077;-70
2022/03/06 08:48:49;;;;;;;13.07;9.32;;;;;;;;;;4974360;28;20125;-71
2022/03/06 08:51:16;;;;;;;12.23;9.20;;;;;;;;;;4983328;28;20042;-70
2022/03/06 08:53:42;;;;;;;14.88;9.05;;;;;;;;;;4978334;28;20053;-71
2022/03/06 08:56:08;;;;;;;15.10;9.80;;;;;;;;;;4986671;28;20050;-70
2022/03/06 08:58:35;;;;;;;10.70;7.72;;;;;;;;;;4989664;28;20054;-70
2022/03/06 09:01:01;;;;;;;14.20;8.95;;;;;;;;;;4984447;28;20144;-70
2022/03/06 09:03:28;;;;;;;13.65;8.77;;;;;;;;;;4999913;28;20616;-70
2022/03/06 09:05:54;;;;;;;13.48;8.70;;;;;;;;;;4978971;28;20045;-70
2022/03/06 09:08:21;;;;;;;12.52;8.93;;;;;;;;;;4987325;28;20058;-70
2022/03/06 09:10:47;;;;;;;15.13;8.27;;;;;;;;;;4972314;28;20055;-71
2022/03/06 09:13:14;;;;;;;11.90;8.70;;;;;;;;;;4982576;28;20507;-71
2022/03/06 09:15:40;;;;;;;13.23;7.80;;;;;;;;;;4987796;28;20046;-71
2022/03/06 09:18:06;;;;;;;13.02;8.18;;;;;;;;;;4978411;28;20896;-70
2022/03/06 09:20:32;;;;;;;12.93;8.30;;;;;;;;;;4979394;28;20042;-70
2022/03/06 09:22:59;;;;;;;14.10;8.35;;;;;;;;;;4979610;28;20073;-70
2022/03/06 09:25:25;;;;;;;13.52;8.18;;;;;;;;;;4987138;28;20050;-71
2022/03/06 09:27:51;;;;;;;11.05;7.13;;;;;;;;;;4985351;28;20054;-71
2022/03/06 09:30:18;;;;;;;12.85;7.55;;;;;;;;;;4986884;28;20046;-71
2022/03/06 09:32:44;;;;;;;11.32;7.25;;;;;;;;;;4988565;28;20046;-70
2022/03/06 09:35:10;;;;;;;9.93;7.03;;;;;;;;;;4975428;28;20438;-70
2022/03/06 09:37:41;;;;;;;11.45;7.30;;;;;;;;;;5001470;28;20050;-70
2022/03/06 09:40:08;;;;;;;10.75;7.00;;;;;;;;;;4984790;28;20700;-70
2022/03/06 09:42:35;;;;;;;10.52;6.80;;;;;;;;;;4988752;28;20138;-70
2022/03/06 09:45:04;;;;;;;12.30;7.38;;;;;;;;;;4987280;28;20054;-71
2022/03/06 09:47:30;;;;;;;13.82;6.95;;;;;;;;;;4977277;28;20065;-70
2022/03/06 09:49:57;;;;;;;12.30;7.00;;;;;;;;;;4983921;28;20072;-70
2022/03/06 09:52:23;;;;;;;12.43;6.93;;;;;;;;;;4979254;28;20054;-71
2022/03/06 09:54:49;;;;;;;15.85;7.45;;;;;;;;;;4994439;28;20058;-71
2022/03/06 09:57:19;;;;;;;10.80;6.53;;;;;;;;;;4980286;28;20072;-71
2022/03/06 09:59:46;;;;;;;9.27;5.72;;;;;;;;;;5000552;28;20046;-70
2022/03/06 10:02:13;;;;;;;10.40;6.78;;;;;;;;;;4978806;28;20050;-71
2022/03/06 10:04:40;;;;;;;10.68;6.53;;;;;;;;;;4984391;28;20077;-70
2022/03/06 10:07:07;;;;;;;11.70;6.57;;;;;;;;;;4984991;28;20042;-70
2022/03/06 10:09:41;;;;;;;12.07;6.47;;;;;;;;;;4982012;28;20046;-71
2022/03/06 10:12:23;;;;;;;10.85;5.97;;;;;;;;;;4985116;28;20047;-71
2022/03/06 10:14:51;;;;;;;9.00;5.95;;;;;;;;;;4976251;28;20042;-71
2022/03/06 10:17:19;;;;;;;11.88;6.60;;;;;;;;;;4976259;28;20050;-71
2022/03/06 10:20:05;;;;;;;9.10;5.72;;;;;;;;;;4980632;28;20046;-70
2022/03/06 10:22:31;;;;;;;8.27;5.57;;;;;;;;;;4988859;28;20042;-71
2022/03/06 10:24:59;;;;;;;7.93;5.63;;;;;;;;;;4987289;28;20053;-70
2022/03/06 10:27:43;;;;;;;8.57;6.10;;;;;;;;;;4996608;28;20049;-70
2022/03/06 10:30:28;;;;;;;10.60;6.28;;;;;;;;;;4980774;28;20772;-71
2022/03/06 10:32:55;;;;;;;10.10;5.80;;;;;;;;;;4979100;28;20079;-71
2022/03/06 10:35:32;;;;;;;9.48;5.50;;;;;;;;;;5001771;28;20054;-71
2022/03/06 10:37:59;;;;;;;7.90;5.20;;;;;;;;;;4981919;28;20046;-70
2022/03/06 10:40:32;;;;;;;9.98;6.30;;;;;;;;;;4999569;28;20053;-70
2022/03/06 10:42:59;;;;;;;10.00;5.97;;;;;;;;;;4998635;28;20049;-71
2022/03/06 10:45:25;;;;;;;11.43;6.05;;;;;;;;;;5000481;28;20052;-70
2022/03/06 10:47:52;;;;;;;10.48;6.22;;;;;;;;;;4991597;28;20068;-71
2022/03/06 10:50:22;;;;;;;8.60;5.88;;;;;;;;;;4985326;28;20129;-70
2022/03/06 10:52:53;;;;;;;12.55;6.45;;;;;;;;;;4990296;28;20058;-71
2022/03/06 10:55:33;;;;;;;9.73;6.00;;;;;;;;;;4984442;28;20066;-70
2022/03/06 10:57:59;;;;;;;13.20;6.97;;;;;;;;;;4983478;28;20047;-70
2022/03/06 11:00:27;;;;;;;10.77;6.50;;;;;;;;;;4981629;28;20045;-71
2022/03/06 11:02:55;;;;;;;10.32;6.57;;;;;;;;;;4976707;28;20050;-70
2022/03/06 11:05:23;;;;;;;9.43;6.55;;;;;;;;;;4979521;28;20113;-71
2022/03/06 11:07:49;;;;;;;13.23;6.85;;;;;;;;;;4982683;28;20050;-71
2022/03/06 11:10:15;;;;;;;9.80;5.97;;;;;;;;;;4987606;28;20436;-70
2022/03/06 11:12:42;;;;;;;8.77;6.05;;;;;;;;;;4978527;28;20046;-71
2022/03/06 11:15:08;;;;;;;9.40;6.10;;;;;;;;;;4991774;28;20129;-71
2022/03/06 11:17:35;;;;;;;9.18;6.20;;;;;;;;;;4983083;28;20061;-70
2022/03/06 11:20:02;;;;;;;12.30;6.68;;;;;;;;;;5008735;28;20053;-70
2022/03/06 11:22:38;;;;;;;9.15;6.60;;;;;;;;;;4981419;28;20095;-70
2022/03/06 11:25:07;;;;;;;;;;;;;;;;;;4976448;28;20616;-71
2022/03/06 11:27:37;;;;;;;11.20;6.50;;;;;;;;;;4986671;28;20363;-71
2022/03/06 11:30:08;;;;;;;9.88;6.30;;;;;;;;;;4992799;28;20220;-70
2022/03/06 11:32:35;;;;;;;8.90;6.40;;;;;;;;;;4988030;28;20058;-71
2022/03/06 11:35:09;;;;;;;12.10;6.13;;;;;;;;;;4979672;28;20069;-71
2022/03/06 11:37:45;;;;;;;11.15;6.18;;;;;;;;;;4987568;28;20046;-71
2022/03/06 11:40:31;;;;;;;11.02;6.60;;;;;;;;;;4979375;28;20046;-71
2022/03/06 11:42:58;;;;;;;9.68;6.10;;;;;;;;;;4989463;28;20503;-71
2022/03/06 11:45:43;;;;;;;8.77;6.40;;;;;;;;;;4989196;28;20046;-71
2022/03/06 11:48:23;;;;;;;7.97;6.05;;;;;;;;;;4995535;28;20542;-70
2022/03/06 11:51:08;;;;;;;10.25;6.00;;;;;;;;;;4980757;28;20815;-71
2022/03/06 11:53:47;;;;;;;8.63;5.88;;;;;;;;;;4983980;28;20133;-70
2022/03/06 11:56:34;;;;;;;9.05;5.72;;;;;;;;;;4997783;28;20046;-69
2022/03/06 11:59:03;;;;;;;9.25;5.65;;;;;;;;;;4990731;28;20817;-69
2022/03/06 12:01:34;;;;;;;10.13;6.43;;;;;;;;;;4989183;28;20047;-69
2022/03/06 12:04:06;;;;;;;7.57;5.93;;;;;;;;;;4969137;28;20047;-70
2022/03/06 12:06:39;;;;;;;10.13;6.05;;;;;;;;;;4983134;28;20133;-70
2022/03/06 12:09:12;;;;;;;9.75;5.97;;;;;;;;;;4983486;28;20519;-69
2022/03/06 12:11:39;;;;;;;10.82;5.90;;;;;;;;;;4992616;28;20041;-69
2022/03/06 12:14:28;;;;;;;11.15;7.32;;;;;;;;;;4986652;28;20046;-69
2022/03/06 12:17:00;;;;;;;8.27;5.90;;;;;;;;;;4989138;28;20292;-70
2022/03/06 12:19:30;;;;;;;13.10;7.68;;;;;;;;;;4975772;28;20359;-70
2022/03/06 12:22:09;;;;;;;8.25;6.57;;;;;;;;;;4989562;28;20050;-70
2022/03/06 12:24:35;;;;;;;9.85;6.28;;;;;;;;;;4987705;28;20397;-70
2022/03/06 12:27:14;;;;;;;9.23;6.10;;;;;;;;;;4970939;28;20053;-71
2022/03/06 12:29:40;;;;;;;;;;;;;;;;;;4995611;28;20042;-70
2022/03/06 12:32:24;;;;;;;8.88;6.03;;;;;;;;;;4991142;28;19926;-71
2022/03/06 12:35:02;;;;;;;9.57;6.07;;;;;;;;;;4979989;28;20050;-71
2022/03/06 12:37:48;;;;;;;7.93;6.15;;;;;;;;;;4981522;28;20046;-70
2022/03/06 12:40:19;;;;;;;9.63;6.72;;;;;;;;;;4985515;28;20057;-71
2022/03/06 12:42:46;;;;;;;9.20;6.80;;;;;;;;;;4983770;28;20053;-71
2022/03/06 12:45:13;;;;;;;8.57;6.32;;;;;;;;;;4984920;28;20046;-71
2022/03/06 12:47:41;;;;;;;10.07;6.40;;;;;;;;;;4975320;28;20562;-69
2022/03/06 12:50:09;;;;;;;9.02;5.97;;;;;;;;;;4973270;28;20047;-71
2022/03/06 12:52:35;;;;;;;8.05;5.95;;;;;;;;;;4989852;28;20858;-71
2022/03/06 12:55:04;;;;;;;7.03;5.20;;;;;;;;;;4981288;28;20050;-71
2022/03/06 12:57:40;;;;;;;10.02;5.63;;;;;;;;;;4973552;28;20051;-71
2022/03/06 13:00:08;;;;;;;8.88;5.88;;;;;;;;;;4974776;28;20050;-70
2022/03/06 13:02:34;;;;;;;8.95;5.43;;;;;;;;;;4971277;28;20500;-70
2022/03/06 13:05:01;;;;;;;8.48;6.30;;;;;;;;;;4990422;28;20077;-70
2022/03/06 13:07:28;;;;;;;8.07;5.95;;;;;;;;;;4989811;28;20464;-71
2022/03/06 13:09:59;;;;;;;8.43;5.72;;;;;;;;;;4988161;28;20152;-71
2022/03/06 13:12:27;;;;;;;8.45;6.13;;;;;;;;;;4972832;28;20053;-70
2022/03/06 13:14:54;;;;;;;;;;;;;;;;;;4983825;28;20196;-70
2022/03/06 13:17:20;;;;;;;8.23;5.93;;;;;;;;;;4981128;28;20391;-70
2022/03/06 13:19:48;;;;;;;8.95;6.07;;;;;;;;;;4976391;28;20129;-69
2022/03/06 13:22:15;;;;;;;9.75;6.32;;;;;;;;;;4981432;28;20770;-69
2022/03/06 13:24:46;;;;;;;7.97;5.43;;;;;;;;;;4987949;28;20054;-69
2022/03/06 13:27:19;;;;;;;7.55;5.47;;;;;;;;;;4984575;28;20042;-70
2022/03/06 13:29:57;;;;;;;8.10;5.75;;;;;;;;;;4978652;28;20046;-69
2022/03/06 13:32:27;;;;;;;8.70;6.22;;;;;;;;;;4999244;28;20069;-69
2022/03/06 13:34:53;;;;;;;7.57;5.55;;;;;;;;;;4980365;28;20046;-71
2022/03/06 13:37:29;;;;;;;8.15;5.57;;;;;;;;;;4988225;28;20061;-71
2022/03/06 13:39:55;;;;;;;8.13;5.60;;;;;;;;;;4977141;28;20061;-71
2022/03/06 13:42:35;;;;;;;9.13;5.78;;;;;;;;;;4990847;28;20053;-71
2022/03/06 13:45:02;;;;;;;8.73;5.95;;;;;;;;;;4979809;28;20056;-71
2022/03/06 13:47:46;;;;;;;7.87;5.03;;;;;;;;;;4976561;28;20057;-72
2022/03/06 13:50:19;;;;;;;9.07;5.38;;;;;;;;;;4983838;28;20315;-71
2022/03/06 13:52:46;;;;;;;7.60;5.43;;;;;;;;;;4979712;28;20196;-72
2022/03/06 13:55:13;;;;;;;9.27;5.18;;;;;;;;;;4979983;28;20051;-71
2022/03/06 13:57:57;;;;;;;8.00;5.70;;;;;;;;;;4975406;28;20674;-71
2022/03/06 14:00:25;;;;;;;8.32;5.20;;;;;;;;;;4985951;28;20061;-71
2022/03/06 14:03:01;;;;;;;8.10;5.20;;;;;;;;;;4972878;28;20408;-71
2022/03/06 14:05:28;;;;;;;7.75;4.70;;;;;;;;;;4983962;28;20054;-71
2022/03/06 14:07:55;;;;;;;7.55;4.97;;;;;;;;;;4989703;28;20057;-71
2022/03/06 14:10:37;;;;;;;8.02;5.05;;;;;;;;;;4979522;28;20089;-71
2022/03/06 14:13:17;;;;;;;8.13;5.50;;;;;;;;;;4980739;28;20488;-71
2022/03/06 14:15:44;;;;;;;8.02;5.65;;;;;;;;;;4978098;28;20759;-71
2022/03/06 14:18:10;;;;;;;8.25;5.32;;;;;;;;;;4987423;28;20133;-71
2022/03/06 14:20:46;;;;;;;8.20;5.20;;;;;;;;;;4982359;28;20718;-71
2022/03/06 14:23:12;;;;;;;8.82;5.55;;;;;;;;;;4983815;28;20046;-72
2022/03/06 14:25:38;;;;;;;8.93;5.00;;;;;;;;;;4980001;28;20423;-71
2022/03/06 14:28:05;;;;;;;7.50;5.28;;;;;;;;;;4986078;28;20046;-71
2022/03/06 14:30:31;;;;;;;7.10;4.80;;;;;;;;;;4985436;28;20046;-71